createdAt,value
2019-03-06T00:00:47.901Z,2.40
2019-03-06T00:03:17.047Z,2.33
2019-03-06T00:05:46.126Z,2.70
2019-03-06T00:08:15.200Z,2.63
2019-03-06T00:10:44.315Z,2.80
2019-03-06T00:13:13.387Z,2.70
2019-03-06T00:15:42.473Z,3.33
2019-03-06T00:18:11.587Z,2.63
2019-03-06T00:20:40.672Z,1.93
2019-03-06T00:23:09.768Z,2.73
2019-03-06T00:25:38.865Z,2.90
2019-03-06T00:28:08.013Z,3.00
2019-03-06T00:30:37.113Z,2.80
2019-03-06T00:33:06.247Z,3.53
2019-03-06T00:35:38.866Z,2.50
2019-03-06T00:38:07.924Z,2.43
2019-03-06T00:40:45.033Z,3.03
2019-03-06T00:43:14.133Z,2.43
2019-03-06T00:45:43.214Z,2.80
2019-03-06T00:48:12.300Z,3.57
2019-03-06T00:50:41.402Z,5.30
2019-03-06T00:53:10.509Z,3.80
2019-03-06T00:55:39.597Z,3.87
2019-03-06T00:58:08.666Z,3.73
2019-03-06T01:00:37.735Z,4.30
2019-03-06T01:03:06.927Z,3.50
2019-03-06T01:05:36.128Z,4.70
2019-03-06T01:08:05.198Z,4.27
2019-03-06T01:10:34.312Z,5.13
2019-03-06T01:13:03.421Z,3.87
2019-03-06T01:15:32.751Z,5.00
2019-03-06T01:18:01.825Z,4.13
2019-03-06T01:20:30.894Z,4.70
2019-03-06T01:22:59.995Z,4.73
2019-03-06T01:25:29.074Z,4.53
2019-03-06T01:27:58.431Z,5.23
2019-03-06T01:30:27.534Z,6.17
2019-03-06T01:33:02.489Z,3.00
2019-03-06T01:35:44.405Z,6.23
2019-03-06T01:38:32.478Z,6.87
2019-03-06T01:41:26.750Z,5.90
2019-03-06T01:43:59.915Z,7.30
2019-03-06T01:46:29.073Z,6.77
2019-03-06T01:48:58.209Z,6.70
2019-03-06T01:51:27.349Z,6.80
2019-03-06T01:53:56.509Z,5.07
2019-03-06T01:56:25.614Z,6.90
2019-03-06T01:58:54.736Z,7.63
2019-03-06T02:01:23.886Z,6.77
2019-03-06T02:03:52.994Z,8.30
2019-03-06T02:06:22.119Z,8.03
2019-03-06T02:08:51.234Z,7.80
2019-03-06T02:11:20.303Z,6.90
2019-03-06T02:13:49.442Z,7.90
2019-03-06T02:16:18.531Z,8.20
2019-03-06T02:18:47.652Z,8.30
2019-03-06T02:21:16.730Z,6.80
2019-03-06T02:23:45.815Z,8.30
2019-03-06T02:26:14.871Z,8.03
2019-03-06T02:28:43.967Z,6.97
2019-03-06T02:31:13.055Z,8.80
2019-03-06T02:33:42.128Z,6.60
2019-03-06T02:36:11.156Z,8.33
2019-03-06T02:38:40.280Z,8.70
2019-03-06T02:41:09.373Z,7.57
2019-03-06T02:43:38.636Z,7.47
2019-03-06T02:46:07.811Z,7.57
2019-03-06T02:48:36.944Z,8.90
2019-03-06T02:51:06.028Z,9.97
2019-03-06T02:53:35.155Z,7.10
2019-03-06T02:56:04.404Z,8.97
2019-03-06T02:58:39.774Z,8.87
2019-03-06T03:01:27.782Z,7.23
2019-03-06T03:04:18.909Z,7.63
2019-03-06T03:06:54.178Z,7.97
2019-03-06T03:09:23.255Z,8.40
2019-03-06T03:11:52.606Z,8.47
2019-03-06T03:14:21.755Z,8.40
2019-03-06T03:16:50.822Z,7.93
2019-03-06T03:19:19.911Z,9.37
2019-03-06T03:21:49.042Z,7.90
2019-03-06T03:24:18.328Z,8.53
2019-03-06T03:26:47.412Z,9.20
2019-03-06T03:29:16.518Z,8.97
2019-03-06T03:31:45.663Z,9.30
2019-03-06T03:34:14.886Z,9.73
2019-03-06T03:36:44.024Z,8.10
2019-03-06T03:39:13.275Z,7.53
2019-03-06T03:41:42.390Z,7.87
2019-03-06T03:44:11.578Z,9.60
2019-03-06T03:46:40.692Z,8.80
2019-03-06T03:49:09.822Z,10.30
2019-03-06T03:51:38.992Z,7.20
2019-03-06T03:54:08.165Z,9.97
2019-03-06T03:56:37.263Z,9.93
2019-03-06T03:59:06.404Z,10.23
2019-03-06T04:01:35.520Z,8.03
2019-03-06T04:04:04.766Z,8.90
2019-03-06T04:06:33.856Z,8.90
2019-03-06T04:09:03.371Z,10.07
2019-03-06T04:11:32.616Z,7.97
2019-03-06T04:14:01.708Z,10.13
2019-03-06T04:16:31.137Z,9.67
2019-03-06T04:19:00.246Z,6.80
2019-03-06T04:21:29.342Z,9.07
2019-03-06T04:23:58.516Z,7.67
2019-03-06T04:26:27.780Z,9.77
2019-03-06T04:28:57.080Z,8.17
2019-03-06T04:31:26.174Z,9.43
2019-03-06T04:33:55.301Z,7.30
2019-03-06T04:36:24.444Z,9.57
2019-03-06T04:38:53.530Z,8.57
2019-03-06T04:41:22.964Z,8.27
2019-03-06T04:43:52.061Z,8.47
2019-03-06T04:46:21.180Z,9.43
2019-03-06T04:48:50.248Z,7.93
2019-03-06T04:51:19.324Z,9.10
2019-03-06T04:53:49.248Z,7.90
2019-03-06T04:56:18.363Z,9.60
2019-03-06T04:58:47.523Z,7.47
2019-03-06T05:01:16.602Z,6.73
2019-03-06T05:03:45.668Z,7.73
2019-03-06T05:06:15.149Z,8.37
2019-03-06T05:08:44.295Z,6.27
2019-03-06T05:11:13.464Z,7.27
2019-03-06T05:13:42.538Z,7.73
2019-03-06T05:16:11.658Z,6.57
2019-03-06T05:18:52.712Z,7.83
2019-03-06T05:21:21.811Z,7.00
2019-03-06T05:23:50.892Z,5.67
2019-03-06T05:26:20.001Z,7.57
2019-03-06T05:28:49.098Z,4.90
2019-03-06T05:31:18.235Z,5.87
2019-03-06T05:33:47.316Z,6.17
2019-03-06T05:36:50.995Z,4.83
2019-03-06T05:39:20.072Z,4.63
2019-03-06T05:41:49.287Z,7.20
2019-03-06T05:44:18.449Z,7.53
2019-03-06T05:46:47.534Z,6.00
2019-03-06T05:49:16.681Z,7.13
2019-03-06T05:51:45.818Z,7.07
2019-03-06T05:54:14.927Z,5.80
2019-03-06T05:56:44.039Z,4.77
2019-03-06T05:59:13.186Z,7.73
2019-03-06T06:01:42.283Z,7.93
2019-03-06T06:04:11.404Z,6.90
2019-03-06T06:06:40.528Z,7.80
2019-03-06T06:09:09.668Z,8.53
2019-03-06T06:11:38.844Z,7.20
2019-03-06T06:14:07.963Z,7.37
2019-03-06T06:16:37.025Z,7.10
2019-03-06T06:19:06.153Z,6.47
2019-03-06T06:22:03.304Z,7.33
2019-03-06T06:24:32.435Z,6.93
2019-03-06T06:27:01.579Z,7.90
2019-03-06T06:29:30.719Z,6.57
2019-03-06T06:32:00.055Z,5.37
2019-03-06T06:34:29.156Z,8.10
2019-03-06T06:36:58.324Z,7.90
2019-03-06T06:39:27.478Z,8.40
2019-03-06T06:41:56.581Z,7.87
2019-03-06T06:44:25.866Z,7.83
2019-03-06T06:46:55.001Z,8.53
2019-03-06T06:49:24.433Z,6.13
2019-03-06T06:52:19.182Z,7.53
2019-03-06T06:55:29.535Z,8.00
2019-03-06T06:58:46.032Z,8.03
2019-03-06T07:02:31.325Z,7.13
2019-03-06T07:05:16.284Z,5.30
2019-03-06T07:08:10.410Z,4.60
2019-03-06T07:10:55.479Z,5.63
2019-03-06T07:13:58.666Z,6.67
2019-03-06T07:16:45.774Z,5.83
2019-03-06T07:19:37.994Z,5.87
2019-03-06T07:22:44.384Z,6.23
2019-03-06T07:25:32.466Z,4.70
2019-03-06T07:28:10.843Z,4.57
2019-03-06T07:30:51.904Z,5.50
2019-03-06T07:33:46.244Z,5.60
2019-03-06T07:36:40.502Z,5.37
2019-03-06T07:39:18.964Z,4.63
2019-03-06T07:42:13.318Z,5.20
2019-03-06T07:45:08.856Z,4.43
2019-03-06T07:47:55.466Z,4.37
2019-03-06T07:50:41.545Z,5.50
2019-03-06T07:53:52.634Z,5.43
2019-03-06T07:56:46.796Z,4.93
2019-03-06T07:59:16.093Z,4.63
2019-03-06T08:01:52.053Z,5.30
2019-03-06T08:04:21.304Z,4.40
2019-03-06T08:06:53.558Z,4.43
2019-03-06T08:09:22.840Z,4.30
2019-03-06T08:12:03.253Z,3.73
2019-03-06T08:14:51.280Z,3.27
2019-03-06T08:17:45.544Z,3.13
2019-03-06T08:20:27.422Z,2.50
2019-03-06T08:23:14.380Z,3.33
2019-03-06T08:25:46.646Z,2.57
2019-03-06T08:28:15.758Z,2.70
2019-03-06T08:31:05.885Z,2.90
2019-03-06T08:33:34.949Z,2.33
2019-03-06T08:36:03.993Z,2.67
2019-03-06T08:38:33.154Z,2.20
2019-03-06T08:41:04.860Z,2.50
2019-03-06T08:43:33.192Z,2.33
2019-03-06T08:46:38.642Z,2.20
2019-03-06T08:49:41.906Z,2.43
2019-03-06T08:52:19.159Z,2.23
2019-03-06T08:55:01.084Z,2.43
2019-03-06T08:57:55.505Z,1.93
2019-03-06T09:00:55.890Z,1.73
2019-03-06T09:03:43.457Z,1.93
2019-03-06T09:06:30.517Z,1.40
2019-03-06T09:09:17.660Z,1.47
2019-03-06T09:12:10.055Z,2.10
2019-03-06T09:14:59.195Z,1.50
2019-03-06T09:17:42.872Z,1.83
2019-03-06T09:20:40.746Z,1.80
2019-03-06T09:23:23.578Z,2.00
2019-03-06T09:26:11.759Z,1.50
2019-03-06T09:29:01.148Z,1.37
2019-03-06T09:31:51.292Z,1.60
2019-03-06T09:34:48.438Z,1.43
2019-03-06T09:37:25.711Z,1.23
2019-03-06T09:40:07.853Z,1.83
2019-03-06T09:42:47.131Z,1.40
2019-03-06T09:45:31.390Z,1.80
2019-03-06T09:48:12.828Z,1.40
2019-03-06T09:50:54.820Z,1.80
2019-03-06T09:53:43.159Z,1.77
2019-03-06T09:56:31.370Z,1.60
2019-03-06T09:59:19.717Z,1.50
2019-03-06T10:02:07.211Z,1.20
2019-03-06T10:04:47.818Z,1.77
2019-03-06T10:07:26.736Z,1.57
2019-03-06T10:10:13.826Z,1.17
2019-03-06T10:13:09.749Z,1.50
2019-03-06T10:15:59.295Z,1.43
2019-03-06T10:18:56.459Z,1.77
2019-03-06T10:21:27.021Z,1.00
2019-03-06T10:23:56.297Z,1.70
2019-03-06T10:26:25.688Z,1.90
2019-03-06T10:28:54.813Z,1.10
2019-03-06T10:31:23.945Z,1.43
2019-03-06T10:33:53.059Z,1.43
2019-03-06T10:36:22.259Z,0.90
2019-03-06T10:38:51.343Z,1.13
2019-03-06T10:41:20.714Z,1.40
2019-03-06T10:43:49.915Z,1.40
2019-03-06T10:46:18.986Z,1.53
2019-03-06T10:48:48.498Z,1.60
2019-03-06T10:51:18.113Z,0.87
2019-03-06T10:53:47.418Z,1.57
2019-03-06T10:56:16.709Z,1.27
2019-03-06T10:58:45.850Z,1.47
2019-03-06T11:01:15.114Z,1.90
2019-03-06T11:03:52.931Z,1.60
2019-03-06T11:06:22.085Z,1.20
2019-03-06T11:08:51.182Z,1.83
2019-03-06T11:11:20.526Z,1.67
2019-03-06T11:13:49.746Z,1.47
2019-03-06T11:16:18.968Z,1.53
2019-03-06T11:18:48.189Z,1.63
2019-03-06T11:21:17.302Z,1.20
2019-03-06T11:23:46.462Z,1.50
2019-03-06T11:26:15.698Z,1.20
2019-03-06T11:28:44.797Z,1.70
2019-03-06T11:31:13.953Z,1.40
2019-03-06T11:33:43.131Z,1.33
2019-03-06T11:36:13.184Z,1.57
2019-03-06T11:38:44.297Z,1.47
2019-03-06T11:41:13.269Z,1.30
2019-03-06T11:43:42.396Z,1.60
2019-03-06T11:46:12.936Z,1.47
2019-03-06T11:48:42.053Z,1.90
2019-03-06T11:51:11.137Z,1.30
2019-03-06T11:53:40.265Z,1.30
2019-03-06T11:56:09.439Z,1.43
2019-03-06T11:58:38.559Z,1.30
2019-03-06T12:01:12.342Z,1.80
2019-03-06T12:03:41.440Z,1.10
2019-03-06T12:06:10.577Z,1.17
2019-03-06T12:08:45.534Z,1.40
2019-03-06T12:11:10.615Z,1.07
2019-03-06T12:13:39.775Z,1.40
2019-03-06T12:16:09.091Z,1.53
2019-03-06T12:18:38.155Z,1.10
2019-03-06T12:21:07.353Z,1.10
2019-03-06T12:23:36.525Z,1.20
2019-03-06T12:26:05.852Z,1.20
2019-03-06T12:28:34.950Z,1.80
2019-03-06T12:31:07.412Z,1.50
2019-03-06T12:33:36.369Z,1.50
2019-03-06T12:36:05.767Z,1.37
2019-03-06T12:38:35.035Z,1.03
2019-03-06T12:41:04.136Z,1.30
2019-03-06T12:43:33.485Z,1.90
2019-03-06T12:46:24.202Z,1.53
2019-03-06T12:49:01.898Z,1.23
2019-03-06T12:51:33.248Z,1.10
2019-03-06T12:54:02.379Z,1.43
2019-03-06T12:56:31.560Z,1.47
2019-03-06T12:59:00.627Z,1.57
2019-03-06T13:01:29.766Z,1.30
2019-03-06T13:03:58.839Z,1.40
2019-03-06T13:06:28.065Z,0.97
2019-03-06T13:08:57.291Z,1.10
2019-03-06T13:11:26.474Z,1.27
2019-03-06T13:13:55.604Z,1.20
2019-03-06T13:16:24.788Z,1.20
2019-03-06T13:18:53.999Z,1.00
2019-03-06T13:21:23.124Z,1.50
2019-03-06T13:23:52.243Z,1.00
2019-03-06T13:26:21.386Z,1.10
2019-03-06T13:28:57.113Z,1.13
2019-03-06T13:31:21.388Z,1.03
2019-03-06T13:33:57.267Z,1.10
2019-03-06T13:36:26.429Z,1.10
2019-03-06T13:39:05.733Z,1.10
2019-03-06T13:41:26.836Z,1.13
2019-03-06T13:43:56.080Z,1.33
2019-03-06T13:46:25.293Z,1.27
2019-03-06T13:48:54.727Z,1.03
2019-03-06T13:51:23.926Z,1.30
2019-03-06T13:53:53.186Z,1.03
2019-03-06T13:56:22.438Z,1.17
2019-03-06T13:58:51.944Z,1.33
2019-03-06T14:01:21.241Z,1.33
2019-03-06T14:03:50.725Z,1.40
2019-03-06T14:06:19.815Z,1.43
2019-03-06T14:08:48.947Z,1.07
2019-03-06T14:11:18.008Z,0.90
2019-03-06T14:13:47.124Z,1.27
2019-03-06T14:16:16.265Z,1.23
2019-03-06T14:18:45.522Z,1.03
2019-03-06T14:21:14.683Z,1.03
2019-03-06T14:23:43.959Z,1.30
2019-03-06T14:26:13.076Z,1.17
2019-03-06T14:28:42.324Z,1.23
2019-03-06T14:31:11.725Z,1.43
2019-03-06T14:33:40.950Z,1.23
2019-03-06T14:36:10.064Z,1.00
2019-03-06T14:38:39.192Z,1.47
2019-03-06T14:41:08.286Z,1.10
2019-03-06T14:43:37.449Z,1.47
2019-03-06T14:46:06.809Z,1.20
2019-03-06T14:48:36.046Z,1.33
2019-03-06T14:51:05.132Z,1.60
2019-03-06T14:53:34.223Z,1.60
2019-03-06T14:56:03.390Z,1.20
2019-03-06T14:58:32.505Z,1.40
2019-03-06T15:01:01.844Z,1.20
2019-03-06T15:03:31.014Z,1.30
2019-03-06T15:06:00.281Z,1.60
2019-03-06T15:08:29.420Z,1.60
2019-03-06T15:10:58.554Z,1.50
2019-03-06T15:13:27.761Z,1.57
2019-03-06T15:15:57.266Z,1.47
2019-03-06T15:18:26.432Z,1.20
2019-03-06T15:21:02.479Z,1.57
2019-03-06T15:23:31.609Z,1.60
2019-03-06T15:26:00.809Z,1.70
2019-03-06T15:28:30.138Z,1.07
2019-03-06T15:30:59.255Z,0.90
2019-03-06T15:33:28.358Z,1.23
2019-03-06T15:35:57.468Z,1.27
2019-03-06T15:38:26.904Z,1.30
2019-03-06T15:40:56.056Z,1.30
2019-03-06T15:43:25.297Z,1.80
2019-03-06T15:45:54.480Z,1.60
2019-03-06T15:48:23.656Z,1.60
2019-03-06T15:50:53.075Z,1.50
2019-03-06T15:53:24.673Z,1.60
2019-03-06T15:55:53.203Z,2.00
2019-03-06T15:58:22.429Z,1.43
2019-03-06T16:00:51.647Z,1.60
2019-03-06T16:03:20.915Z,1.63
2019-03-06T16:05:50.042Z,1.57
2019-03-06T16:08:19.098Z,1.90
2019-03-06T16:10:48.414Z,1.90
2019-03-06T16:13:31.612Z,2.00
2019-03-06T16:16:01.034Z,1.70
2019-03-06T16:18:30.142Z,1.77
2019-03-06T16:20:59.580Z,1.83
2019-03-06T16:23:28.688Z,2.10
2019-03-06T16:25:57.841Z,1.43
2019-03-06T16:28:27.303Z,1.70
2019-03-06T16:30:56.625Z,1.70
2019-03-06T16:33:25.803Z,1.53
2019-03-06T16:35:55.332Z,2.33
2019-03-06T16:38:25.151Z,1.47
2019-03-06T16:40:54.230Z,2.03
2019-03-06T16:43:23.417Z,3.07
2019-03-06T16:45:52.588Z,1.60
2019-03-06T16:48:21.892Z,1.37
2019-03-06T16:50:51.169Z,1.90
2019-03-06T16:53:20.514Z,2.43
2019-03-06T16:55:49.852Z,1.77
2019-03-06T16:58:19.147Z,2.20
2019-03-06T17:00:48.712Z,1.57
2019-03-06T17:03:17.910Z,1.63
2019-03-06T17:06:10.227Z,2.13
2019-03-06T17:08:39.527Z,1.77
2019-03-06T17:11:08.682Z,2.40
2019-03-06T17:13:38.132Z,2.00
2019-03-06T17:16:07.469Z,2.73
2019-03-06T17:18:36.535Z,2.30
2019-03-06T17:21:05.843Z,1.90
2019-03-06T17:23:35.110Z,2.43
2019-03-06T17:26:04.298Z,1.80
2019-03-06T17:28:33.744Z,2.23
2019-03-06T17:31:02.857Z,2.40
2019-03-06T17:33:31.941Z,2.17
2019-03-06T17:36:01.103Z,2.20
2019-03-06T17:38:30.295Z,1.90
2019-03-06T17:40:59.400Z,1.93
2019-03-06T17:43:28.705Z,1.97
2019-03-06T17:45:57.760Z,1.93
2019-03-06T17:48:26.957Z,2.13
2019-03-06T17:50:56.009Z,2.37
2019-03-06T17:53:25.147Z,2.03
2019-03-06T17:55:54.281Z,2.33
2019-03-06T17:58:23.358Z,2.40
2019-03-06T18:00:56.407Z,2.20
2019-03-06T18:03:50.723Z,2.40
2019-03-06T18:06:18.734Z,2.70
2019-03-06T18:08:47.922Z,2.17
2019-03-06T18:11:16.977Z,3.20
2019-03-06T18:13:46.143Z,2.13
2019-03-06T18:16:15.236Z,2.43
2019-03-06T18:18:44.281Z,1.97
2019-03-06T18:21:13.522Z,2.37
2019-03-06T18:23:42.656Z,2.77
2019-03-06T18:26:11.812Z,3.03
2019-03-06T18:28:41.068Z,2.43
2019-03-06T18:31:10.235Z,2.93
2019-03-06T18:33:39.356Z,2.80
2019-03-06T18:36:08.658Z,2.67
2019-03-06T18:38:37.830Z,2.97
2019-03-06T18:41:06.975Z,3.27
2019-03-06T18:43:36.083Z,2.93
2019-03-06T18:46:05.122Z,2.63
2019-03-06T18:48:34.455Z,2.90
2019-03-06T18:51:04.838Z,2.60
2019-03-06T18:53:33.976Z,2.37
2019-03-06T18:56:03.113Z,2.97
2019-03-06T18:58:32.227Z,3.00
2019-03-06T19:01:01.363Z,3.03
2019-03-06T19:03:30.423Z,2.57
2019-03-06T19:06:01.517Z,3.20
2019-03-06T19:08:31.532Z,3.93
2019-03-06T19:11:01.097Z,4.23
2019-03-06T19:13:30.144Z,2.60
2019-03-06T19:15:59.270Z,3.23
2019-03-06T19:18:28.356Z,2.77
2019-03-06T19:20:57.663Z,4.20
2019-03-06T19:23:26.688Z,5.43
2019-03-06T19:25:55.787Z,3.50
2019-03-06T19:28:24.823Z,3.07
2019-03-06T19:30:53.942Z,2.40
2019-03-06T19:33:23.026Z,2.93
2019-03-06T19:35:52.353Z,2.73
2019-03-06T19:38:21.861Z,3.77
2019-03-06T19:44:19.164Z,2.83
2019-03-06T19:46:48.218Z,2.97
2019-03-06T19:49:17.225Z,3.17
2019-03-06T19:51:51.531Z,2.90
2019-03-06T19:54:17.562Z,3.13
2019-03-06T19:56:47.204Z,3.43
2019-03-06T19:59:16.276Z,3.77
2019-03-06T20:01:45.326Z,2.87
2019-03-06T20:04:14.361Z,4.33
2019-03-06T20:06:43.406Z,3.50
2019-03-06T20:09:23.982Z,3.10
2019-03-06T20:11:53.024Z,3.43
2019-03-06T20:14:22.031Z,3.37
2019-03-06T20:16:51.138Z,3.57
2019-03-06T20:19:20.135Z,3.60
2019-03-06T20:21:49.514Z,2.30
2019-03-06T20:24:18.565Z,3.40
2019-03-06T20:26:47.673Z,3.57
2019-03-06T20:29:17.623Z,4.20
2019-03-06T20:31:46.577Z,2.73
2019-03-06T20:34:15.713Z,3.50
2019-03-06T20:36:45.749Z,3.27
2019-03-06T20:39:14.692Z,3.13
2019-03-06T20:41:43.777Z,2.73
2019-03-06T20:44:12.894Z,3.17
2019-03-06T20:46:42.029Z,3.37
2019-03-06T20:49:11.054Z,5.27
2019-03-06T20:51:40.113Z,4.17
2019-03-06T20:54:09.139Z,3.40
2019-03-06T20:56:38.131Z,3.73
2019-03-06T20:59:07.293Z,3.43
2019-03-06T21:01:36.515Z,3.87
2019-03-06T21:04:05.510Z,3.33
2019-03-06T21:06:36.343Z,3.47
2019-03-06T21:09:06.313Z,3.20
2019-03-06T21:11:36.368Z,3.10
2019-03-06T21:14:05.459Z,3.53
2019-03-06T21:16:34.479Z,3.70
2019-03-06T21:19:03.479Z,4.37
2019-03-06T21:21:32.551Z,3.77
2019-03-06T21:24:01.636Z,4.17
2019-03-06T21:26:30.819Z,3.90
2019-03-06T21:29:00.026Z,3.80
2019-03-06T21:31:29.140Z,3.83
2019-03-06T21:33:58.261Z,3.73
2019-03-06T21:36:27.242Z,5.27
2019-03-06T21:38:56.526Z,3.60
2019-03-06T21:41:25.634Z,4.30
2019-03-06T21:43:54.867Z,3.80
2019-03-06T21:46:24.039Z,3.47
2019-03-06T21:48:53.194Z,3.67
2019-03-06T21:51:22.226Z,4.17
2019-03-06T21:53:51.379Z,3.70
2019-03-06T21:56:20.428Z,3.20
2019-03-06T21:58:49.508Z,3.80
2019-03-06T22:01:18.588Z,3.80
2019-03-06T22:03:47.597Z,3.87
2019-03-06T22:06:17.759Z,3.30
2019-03-06T22:08:47.047Z,3.73
2019-03-06T22:11:16.089Z,4.03
2019-03-06T22:13:45.231Z,3.90
2019-03-06T22:16:14.245Z,4.47
2019-03-06T22:18:43.339Z,3.80
2019-03-06T22:21:12.373Z,3.70
2019-03-06T22:23:41.391Z,3.00
2019-03-06T22:26:10.387Z,3.13
2019-03-06T22:28:39.451Z,3.97
2019-03-06T22:31:08.521Z,4.47
2019-03-06T22:33:37.501Z,4.57
2019-03-06T22:36:06.517Z,3.53
2019-03-06T22:38:35.372Z,4.03
2019-03-06T22:41:04.356Z,4.27
2019-03-06T22:43:33.326Z,4.10
2019-03-06T22:46:02.811Z,4.10
2019-03-06T22:48:31.827Z,3.77
2019-03-06T22:51:02.905Z,3.90
2019-03-06T22:53:31.970Z,4.20
2019-03-06T22:56:00.944Z,4.00
2019-03-06T22:58:30.037Z,3.93
2019-03-06T23:01:24.214Z,3.40
2019-03-06T23:03:53.279Z,3.80
2019-03-06T23:06:22.200Z,2.70
2019-03-06T23:08:51.565Z,4.00
2019-03-06T23:11:20.885Z,4.07
2019-03-06T23:13:49.938Z,4.20
2019-03-06T23:16:19.010Z,4.10
2019-03-06T23:18:48.152Z,4.73
2019-03-06T23:21:17.112Z,4.33
2019-03-06T23:23:46.221Z,3.57
2019-03-06T23:26:15.185Z,2.83
2019-03-06T23:28:44.244Z,4.00
2019-03-06T23:31:13.175Z,4.60
2019-03-06T23:33:44.183Z,4.23
2019-03-06T23:36:13.308Z,4.03
2019-03-06T23:38:42.299Z,4.17
2019-03-06T23:41:11.496Z,3.70
2019-03-06T23:43:40.490Z,4.50
2019-03-06T23:46:11.618Z,4.27
2019-03-06T23:48:40.235Z,4.30
2019-03-06T23:51:18.266Z,4.10
2019-03-06T23:53:49.535Z,3.97
2019-03-06T23:56:18.492Z,4.33
2019-03-06T23:58:47.541Z,3.57
